Time;durP1;ratioP1;P1;durP2;ratioP2;P2;SDS_P1;SDS_P2;PMS_P1;PMS_P2;Temp;Humidity;BMP_temperature;BMP_pressure;BME280_temperature;BME280_humidity;BME280_pressure;Samples;Min_cycle;Max_cycle;Signal;HPM_P1;HPM_P2
2023/08/19 00:01:35;;;;;;;22.27;19.83;;;;;;;;;;5060743;28;20186;-83
2023/08/19 00:04:01;;;;;;;21.00;19.10;;;;;;;;;;5075396;28;20183;-83
2023/08/19 00:06:32;;;;;;;20.75;18.92;;;;;;;;;;5041306;28;20188;-83
2023/08/19 00:08:58;;;;;;;23.23;21.05;;;;;;;;;;5074397;28;20276;-83
2023/08/19 00:11:24;;;;;;;20.88;19.05;;;;;;;;;;5078244;28;20175;-82
2023/08/19 00:13:50;;;;;;;22.98;20.85;;;;;;;;;;5078194;28;20270;-83
2023/08/19 00:16:18;;;;;;;23.55;21.33;;;;;;;;;;5075269;28;20210;-84
2023/08/19 00:18:44;;;;;;;24.70;22.30;;;;;;;;;;5071095;28;20189;-82
2023/08/19 00:21:11;;;;;;;25.42;22.90;;;;;;;;;;5073129;28;20221;-83
2023/08/19 00:23:39;;;;;;;24.00;21.70;;;;;;;;;;5077615;28;20190;-83
2023/08/19 00:26:05;;;;;;;23.83;21.63;;;;;;;;;;5078134;28;20177;-82
2023/08/19 00:28:31;;;;;;;23.73;21.55;;;;;;;;;;5076908;28;20265;-82
2023/08/19 00:30:57;;;;;;;23.65;21.45;;;;;;;;;;5069361;28;20274;-83
2023/08/19 00:33:26;;;;;;;24.20;22.10;;;;;;;;;;5077643;28;20266;-83
2023/08/19 00:35:52;;;;;;;23.50;21.42;;;;;;;;;;5061467;28;20187;-82
2023/08/19 00:38:18;;;;;;;25.65;23.45;;;;;;;;;;5061380;28;20223;-83
2023/08/19 00:40:44;;;;;;;25.40;23.23;;;;;;;;;;5059667;28;20183;-83
2023/08/19 00:43:10;;;;;;;25.38;22.95;;;;;;;;;;5054697;28;20290;-83
2023/08/19 00:45:42;;;;;;;27.15;24.75;;;;;;;;;;5050713;28;20216;-83
2023/08/19 00:48:25;;;;;;;27.02;24.63;;;;;;;;;;5069966;28;20580;-77
2023/08/19 00:50:51;;;;;;;27.48;24.92;;;;;;;;;;5070833;28;20183;-77
2023/08/19 00:53:18;;;;;;;27.48;24.98;;;;;;;;;;5094101;28;20282;-77
2023/08/19 00:55:44;;;;;;;27.25;24.88;;;;;;;;;;5065609;28;20175;-76
2023/08/19 00:58:11;;;;;;;26.83;24.48;;;;;;;;;;5051908;28;20234;-75
2023/08/19 01:00:38;;;;;;;25.50;23.30;;;;;;;;;;5068478;28;20252;-75
2023/08/19 01:03:04;;;;;;;26.77;24.23;;;;;;;;;;5070222;28;20175;-75
2023/08/19 01:05:49;;;;;;;26.17;23.70;;;;;;;;;;5067218;28;20270;-75
2023/08/19 01:08:18;;;;;;;33.05;30.17;;;;;;;;;;5100451;28;20221;-76
2023/08/19 01:10:47;;;;;;;82.53;75.07;;;;;;;;;;5064393;28;20491;-76
2023/08/19 01:13:15;;;;;;;79.22;72.32;;;;;;;;;;5056492;28;20180;-75
2023/08/19 01:16:01;;;;;;;80.13;72.82;;;;;;;;;;5050958;28;20190;-75
2023/08/19 01:18:27;;;;;;;65.25;59.33;;;;;;;;;;5068097;28;20195;-75
2023/08/19 01:20:54;;;;;;;60.00;54.78;;;;;;;;;;5070840;28;20188;-75
2023/08/19 01:23:27;;;;;;;54.03;49.20;;;;;;;;;;5068829;28;20218;-75
2023/08/19 01:25:53;;;;;;;50.65;45.88;;;;;;;;;;5056265;28;20190;-76
2023/08/19 01:28:20;;;;;;;46.30;41.97;;;;;;;;;;5069093;28;20207;-75
2023/08/19 01:30:46;;;;;;;45.63;41.42;;;;;;;;;;5054109;28;20184;-75
2023/08/19 01:33:12;;;;;;;41.95;38.22;;;;;;;;;;5068725;28;20217;-75
2023/08/19 01:35:45;;;;;;;41.13;37.50;;;;;;;;;;5051819;28;20182;-75
2023/08/19 01:38:14;;;;;;;41.03;37.25;;;;;;;;;;5067184;28;20187;-76
2023/08/19 01:40:41;;;;;;;41.30;37.50;;;;;;;;;;5067519;28;20187;-75
2023/08/19 01:43:10;;;;;;;38.08;34.60;;;;;;;;;;5068794;28;20183;-75
2023/08/19 01:45:36;;;;;;;41.90;38.10;;;;;;;;;;5052239;28;20203;-76
2023/08/19 01:48:02;;;;;;;42.45;38.55;;;;;;;;;;5064589;28;20320;-76
2023/08/19 01:50:28;;;;;;;43.22;39.33;;;;;;;;;;5072013;28;20199;-76
2023/08/19 01:52:54;;;;;;;40.50;36.70;;;;;;;;;;5049748;28;20181;-76
2023/08/19 01:55:20;;;;;;;38.42;34.75;;;;;;;;;;5049311;28;20176;-75
2023/08/19 01:57:46;;;;;;;36.03;32.60;;;;;;;;;;5067427;28;20192;-75
2023/08/19 02:00:13;;;;;;;35.47;32.22;;;;;;;;;;5036738;28;20196;-75
2023/08/19 02:02:39;;;;;;;34.08;30.98;;;;;;;;;;5043014;28;20187;-76
2023/08/19 02:05:05;;;;;;;35.17;31.77;;;;;;;;;;5056233;28;20238;-77
2023/08/19 02:07:31;;;;;;;32.50;29.48;;;;;;;;;;5055827;28;20226;-77
2023/08/19 02:09:57;;;;;;;32.50;29.42;;;;;;;;;;5046469;28;20282;-77
2023/08/19 02:12:23;;;;;;;30.33;27.70;;;;;;;;;;5052106;28;20291;-77
2023/08/19 02:14:49;;;;;;;29.90;27.05;;;;;;;;;;5035834;28;20169;-77
2023/08/19 02:17:15;;;;;;;30.17;27.42;;;;;;;;;;5043611;28;20215;-76
2023/08/19 02:19:41;;;;;;;30.65;27.75;;;;;;;;;;5064438;28;20183;-76
2023/08/19 02:22:07;;;;;;;29.95;26.98;;;;;;;;;;5044055;28;20187;-76
2023/08/19 02:24:33;;;;;;;30.63;27.63;;;;;;;;;;5065974;28;20222;-77
2023/08/19 02:26:59;;;;;;;29.23;26.55;;;;;;;;;;5041348;28;20311;-77
2023/08/19 02:29:25;;;;;;;27.65;25.25;;;;;;;;;;5081965;28;20188;-77
2023/08/19 02:31:51;;;;;;;28.02;25.63;;;;;;;;;;5056079;28;20180;-77
2023/08/19 02:34:17;;;;;;;29.60;26.75;;;;;;;;;;5055160;28;20203;-81
2023/08/19 02:36:43;;;;;;;27.75;25.02;;;;;;;;;;5056200;28;20191;-81
2023/08/19 02:39:09;;;;;;;29.35;26.70;;;;;;;;;;5035618;28;20188;-82
2023/08/19 02:41:35;;;;;;;28.80;26.00;;;;;;;;;;5036213;28;20219;-82
2023/08/19 02:44:01;;;;;;;28.67;25.98;;;;;;;;;;5051825;28;20200;-81
2023/08/19 02:46:27;;;;;;;28.48;25.88;;;;;;;;;;5037050;28;20215;-82
2023/08/19 02:48:53;;;;;;;27.30;24.90;;;;;;;;;;5052290;28;20235;-80
2023/08/19 02:51:19;;;;;;;27.83;25.23;;;;;;;;;;5027257;28;20191;-77
2023/08/19 02:53:45;;;;;;;27.87;25.40;;;;;;;;;;5027346;28;20203;-77
2023/08/19 02:56:11;;;;;;;27.33;24.83;;;;;;;;;;5034935;28;20180;-77
2023/08/19 02:58:37;;;;;;;29.10;26.08;;;;;;;;;;5040292;28;20220;-77
2023/08/19 03:01:03;;;;;;;28.80;25.85;;;;;;;;;;5060182;28;20180;-77
2023/08/19 03:03:29;;;;;;;28.05;25.35;;;;;;;;;;5046472;28;20175;-77
2023/08/19 03:05:59;;;;;;;26.95;24.30;;;;;;;;;;5037472;28;20194;-77
2023/08/19 03:08:25;;;;;;;27.45;24.95;;;;;;;;;;5039998;28;20274;-77
2023/08/19 03:10:51;;;;;;;27.63;24.92;;;;;;;;;;5054549;28;20258;-77
2023/08/19 03:13:17;;;;;;;27.65;25.08;;;;;;;;;;5034803;28;20284;-76
2023/08/19 03:15:43;;;;;;;28.83;26.05;;;;;;;;;;5034771;28;20203;-76
2023/08/19 03:18:10;;;;;;;27.85;25.30;;;;;;;;;;5036038;28;20192;-77
2023/08/19 03:20:36;;;;;;;27.38;24.90;;;;;;;;;;5036250;28;20214;-77
2023/08/19 03:23:02;;;;;;;28.48;25.85;;;;;;;;;;5061011;28;20179;-77
2023/08/19 03:25:28;;;;;;;29.77;26.95;;;;;;;;;;5064612;28;20211;-75
2023/08/19 03:27:54;;;;;;;28.50;25.90;;;;;;;;;;5055227;28;20211;-82
2023/08/19 03:30:20;;;;;;;27.77;25.23;;;;;;;;;;5055435;28;20179;-81
2023/08/19 03:32:46;;;;;;;29.17;26.48;;;;;;;;;;5057528;28;20203;-81
2023/08/19 03:35:12;;;;;;;27.15;24.58;;;;;;;;;;5037391;28;20202;-82
2023/08/19 03:37:38;;;;;;;28.35;25.60;;;;;;;;;;5049172;28;20188;-82
2023/08/19 03:40:04;;;;;;;26.95;24.05;;;;;;;;;;5065966;28;20195;-81
2023/08/19 03:42:30;;;;;;;28.10;25.40;;;;;;;;;;5037417;28;20198;-77
2023/08/19 03:44:56;;;;;;;28.13;25.25;;;;;;;;;;5035917;28;20192;-77
2023/08/19 03:47:23;;;;;;;29.05;26.08;;;;;;;;;;5036272;28;20232;-76
2023/08/19 03:49:49;;;;;;;28.95;26.10;;;;;;;;;;5056402;28;20206;-76
2023/08/19 03:52:15;;;;;;;27.15;24.77;;;;;;;;;;5052813;28;20272;-77
2023/08/19 03:54:41;;;;;;;26.48;24.02;;;;;;;;;;5053003;28;20226;-77
2023/08/19 03:57:07;;;;;;;25.73;23.15;;;;;;;;;;5033578;28;20207;-77
2023/08/19 03:59:33;;;;;;;25.77;23.30;;;;;;;;;;5032940;28;20184;-77
2023/08/19 04:01:59;;;;;;;25.48;23.00;;;;;;;;;;5041306;28;20200;-77
2023/08/19 04:04:25;;;;;;;26.60;24.13;;;;;;;;;;5036211;28;20184;-77
2023/08/19 04:06:51;;;;;;;26.95;24.55;;;;;;;;;;5032796;28;20282;-77
2023/08/19 04:09:17;;;;;;;25.20;22.70;;;;;;;;;;5032455;28;20196;-77
2023/08/19 04:11:43;;;;;;;25.88;23.27;;;;;;;;;;5063587;28;20187;-77
2023/08/19 04:14:09;;;;;;;25.58;23.17;;;;;;;;;;5046522;28;20208;-76
2023/08/19 04:16:37;;;;;;;27.27;24.50;;;;;;;;;;5029657;28;20210;-76
2023/08/19 04:19:03;;;;;;;27.40;24.85;;;;;;;;;;5048711;28;20263;-76
2023/08/19 04:21:30;;;;;;;25.95;23.23;;;;;;;;;;5069395;28;20191;-77
2023/08/19 04:23:56;;;;;;;25.83;22.92;;;;;;;;;;5053433;28;20199;-76
2023/08/19 04:26:22;;;;;;;25.80;23.30;;;;;;;;;;5052204;28;20180;-76
2023/08/19 04:28:48;;;;;;;27.38;24.58;;;;;;;;;;5034937;28;20195;-75
2023/08/19 04:31:14;;;;;;;26.20;23.65;;;;;;;;;;5058277;28;20211;-76
2023/08/19 04:33:40;;;;;;;24.75;22.38;;;;;;;;;;5039532;28;20194;-76
2023/08/19 04:36:06;;;;;;;24.42;21.83;;;;;;;;;;5052198;28;20267;-76
2023/08/19 04:38:32;;;;;;;24.43;21.80;;;;;;;;;;5042787;28;20189;-76
2023/08/19 04:41:02;;;;;;;24.50;22.20;;;;;;;;;;5048854;28;20184;-76
2023/08/19 04:43:28;;;;;;;26.43;23.60;;;;;;;;;;5055515;28;20184;-76
2023/08/19 04:45:57;;;;;;;24.63;22.23;;;;;;;;;;5024881;28;20184;-76
2023/08/19 04:48:23;;;;;;;24.60;22.20;;;;;;;;;;5052336;28;20334;-76
2023/08/19 04:50:49;;;;;;;24.60;22.17;;;;;;;;;;5055392;28;20187;-76
2023/08/19 04:53:16;;;;;;;24.13;21.73;;;;;;;;;;5035934;28;20185;-76
2023/08/19 04:55:42;;;;;;;22.95;20.65;;;;;;;;;;5051738;28;20274;-76
2023/08/19 04:58:08;;;;;;;23.77;21.17;;;;;;;;;;5055609;28;20179;-77
2023/08/19 05:00:35;;;;;;;22.90;20.55;;;;;;;;;;5048127;28;20275;-77
2023/08/19 05:03:02;;;;;;;21.85;19.55;;;;;;;;;;5052543;28;20283;-76
2023/08/19 05:05:28;;;;;;;23.08;20.77;;;;;;;;;;5053249;28;20183;-77
2023/08/19 05:07:54;;;;;;;20.83;18.92;;;;;;;;;;5035621;28;20222;-77
2023/08/19 05:10:20;;;;;;;22.52;19.58;;;;;;;;;;5052366;28;20275;-77
2023/08/19 05:12:46;;;;;;;21.70;19.52;;;;;;;;;;5052266;28;20238;-77
2023/08/19 05:15:12;;;;;;;21.85;19.63;;;;;;;;;;5056358;28;20208;-77
2023/08/19 05:17:38;;;;;;;21.13;18.80;;;;;;;;;;5034102;28;20189;-77
2023/08/19 05:20:05;;;;;;;20.48;18.38;;;;;;;;;;5043749;28;20184;-77
2023/08/19 05:22:31;;;;;;;19.58;17.58;;;;;;;;;;5057392;28;20195;-81
2023/08/19 05:24:57;;;;;;;19.00;17.35;;;;;;;;;;5064303;28;20199;-82
2023/08/19 05:27:23;;;;;;;19.95;17.95;;;;;;;;;;5035575;28;20294;-82
2023/08/19 05:29:50;;;;;;;19.07;17.30;;;;;;;;;;5083639;28;20179;-82
2023/08/19 05:32:16;;;;;;;19.60;17.73;;;;;;;;;;5054634;28;20179;-82
2023/08/19 05:34:42;;;;;;;18.85;17.02;;;;;;;;;;5057567;28;20184;-82
2023/08/19 05:37:08;;;;;;;20.67;17.38;;;;;;;;;;5039616;28;20181;-82
2023/08/19 05:39:34;;;;;;;18.13;16.42;;;;;;;;;;5066599;28;20191;-76
2023/08/19 05:42:00;;;;;;;17.90;16.00;;;;;;;;;;5034895;28;20184;-75
2023/08/19 05:44:26;;;;;;;18.83;15.63;;;;;;;;;;5039218;28;20187;-75
2023/08/19 05:46:52;;;;;;;17.52;15.82;;;;;;;;;;5055768;28;20252;-75
2023/08/19 05:49:18;;;;;;;17.73;15.80;;;;;;;;;;5039142;28;20228;-75
2023/08/19 05:51:44;;;;;;;16.63;15.20;;;;;;;;;;5039311;28;20176;-75
2023/08/19 05:54:10;;;;;;;17.40;14.05;;;;;;;;;;5039267;28;20180;-75
2023/08/19 05:56:36;;;;;;;15.90;14.38;;;;;;;;;;5052458;22;20321;-75
2023/08/19 05:59:02;;;;;;;17.13;15.48;;;;;;;;;;5008083;28;20182;-75
2023/08/19 06:01:28;;;;;;;17.10;15.35;;;;;;;;;;4996491;28;20200;-75
2023/08/19 06:03:54;;;;;;;15.40;13.90;;;;;;;;;;4997079;28;20178;-76
2023/08/19 06:06:20;;;;;;;14.52;12.98;;;;;;;;;;5001035;28;20178;-75
2023/08/19 06:08:46;;;;;;;14.15;12.73;;;;;;;;;;5012845;28;20174;-75
2023/08/19 06:11:12;;;;;;;15.90;13.38;;;;;;;;;;5008793;28;20169;-76
2023/08/19 06:13:38;;;;;;;17.35;13.02;;;;;;;;;;5015465;28;20186;-77
2023/08/19 06:16:05;;;;;;;17.88;12.85;;;;;;;;;;5016457;28;20197;-77
2023/08/19 06:18:31;;;;;;;16.13;12.27;;;;;;;;;;4999561;28;20272;-75
2023/08/19 06:20:57;;;;;;;13.65;12.07;;;;;;;;;;5015583;28;20185;-75
2023/08/19 06:23:24;;;;;;;13.40;11.80;;;;;;;;;;5049325;28;20250;-75
2023/08/19 06:25:51;;;;;;;13.80;12.40;;;;;;;;;;5015128;28;20243;-75
2023/08/19 06:28:18;;;;;;;15.20;11.75;;;;;;;;;;5015548;28;20212;-76
2023/08/19 06:30:44;;;;;;;13.98;12.55;;;;;;;;;;5016512;28;20189;-76
2023/08/19 06:33:10;;;;;;;13.85;11.73;;;;;;;;;;5016358;28;20205;-76
2023/08/19 06:35:36;;;;;;;17.63;11.73;;;;;;;;;;5031970;28;20182;-77
2023/08/19 06:38:14;;;;;;;13.30;11.82;;;;;;;;;;4997056;28;20186;-77
2023/08/19 06:40:45;;;;;;;14.30;11.63;;;;;;;;;;4997012;28;20200;-77
2023/08/19 06:43:12;;;;;;;12.48;11.25;;;;;;;;;;5011915;28;20182;-77
2023/08/19 06:45:38;;;;;;;12.73;11.40;;;;;;;;;;5012108;28;20245;-77
2023/08/19 06:48:05;;;;;;;14.10;10.98;;;;;;;;;;5011813;28;20304;-77
2023/08/19 06:50:31;;;;;;;12.43;10.48;;;;;;;;;;5019198;28;20189;-77
2023/08/19 06:52:57;;;;;;;13.02;10.80;;;;;;;;;;5044058;28;20181;-77
2023/08/19 06:55:23;;;;;;;11.00;9.90;;;;;;;;;;5068024;28;20169;-77
2023/08/19 06:58:00;;;;;;;11.52;10.40;;;;;;;;;;5035685;28;20228;-77
2023/08/19 07:00:26;;;;;;;11.80;10.00;;;;;;;;;;5027840;28;20173;-77
2023/08/19 07:02:53;;;;;;;13.50;10.20;;;;;;;;;;5015065;28;20177;-77
2023/08/19 07:05:20;;;;;;;13.32;9.45;;;;;;;;;;5014894;28;20205;-77
2023/08/19 07:07:49;;;;;;;11.20;9.45;;;;;;;;;;5014694;28;20205;-77
2023/08/19 07:10:17;;;;;;;13.43;9.05;;;;;;;;;;5013305;28;20190;-77
2023/08/19 07:12:43;;;;;;;13.35;9.60;;;;;;;;;;5021757;28;20176;-77
2023/08/19 07:15:12;;;;;;;10.10;9.10;;;;;;;;;;5068212;28;20188;-77
2023/08/19 07:17:41;;;;;;;12.02;8.95;;;;;;;;;;5015827;28;20174;-76
2023/08/19 07:20:09;;;;;;;15.23;10.30;;;;;;;;;;5014573;28;20925;-76
2023/08/19 07:22:35;;;;;;;10.05;8.85;;;;;;;;;;5030825;28;20181;-76
2023/08/19 07:25:03;;;;;;;13.95;9.15;;;;;;;;;;4994989;28;20209;-76
2023/08/19 07:27:30;;;;;;;17.40;8.98;;;;;;;;;;4994837;28;20329;-76
2023/08/19 07:29:57;;;;;;;10.40;9.25;;;;;;;;;;4994838;28;20178;-76
2023/08/19 07:32:23;;;;;;;12.70;9.65;;;;;;;;;;4995244;28;20201;-76
2023/08/19 07:34:49;;;;;;;10.98;8.55;;;;;;;;;;4994007;28;20174;-83
2023/08/19 07:37:15;;;;;;;13.82;8.70;;;;;;;;;;5013101;28;20189;-82
2023/08/19 07:39:41;;;;;;;14.07;8.98;;;;;;;;;;5014072;28;20235;-83
2023/08/19 07:42:07;;;;;;;11.02;8.30;;;;;;;;;;4998013;28;20212;-83
2023/08/19 07:44:34;;;;;;;11.05;8.60;;;;;;;;;;5013384;28;20182;-83
2023/08/19 07:46:59;;;;;;;11.07;8.82;;;;;;;;;;5029696;28;20219;-81
2023/08/19 07:49:25;;;;;;;10.13;9.18;;;;;;;;;;5015032;28;20185;-81
2023/08/19 07:51:52;;;;;;;11.38;8.65;;;;;;;;;;5014306;28;20177;-77
2023/08/19 07:54:21;;;;;;;14.23;8.68;;;;;;;;;;5015160;28;20189;-77
2023/08/19 07:56:47;;;;;;;15.68;8.80;;;;;;;;;;5013375;28;20312;-77
2023/08/19 07:59:13;;;;;;;11.95;8.60;;;;;;;;;;5047001;28;20189;-77
2023/08/19 08:01:39;;;;;;;9.27;8.32;;;;;;;;;;5030450;28;20291;-77
2023/08/19 08:04:05;;;;;;;12.23;8.82;;;;;;;;;;5013413;28;20430;-77
2023/08/19 08:06:31;;;;;;;11.98;9.60;;;;;;;;;;4996349;28;20485;-77
2023/08/19 08:08:57;;;;;;;10.20;8.98;;;;;;;;;;4997149;28;20501;-77
2023/08/19 08:11:23;;;;;;;13.90;9.05;;;;;;;;;;4997600;28;20173;-77
2023/08/19 08:13:49;;;;;;;9.52;8.25;;;;;;;;;;5014129;28;20188;-77
2023/08/19 08:16:15;;;;;;;10.27;8.70;;;;;;;;;;4993021;28;20417;-77
2023/08/19 08:18:41;;;;;;;10.30;8.40;;;;;;;;;;5012014;28;20189;-77
2023/08/19 08:21:07;;;;;;;11.18;8.07;;;;;;;;;;5046803;28;20216;-76
2023/08/19 08:23:33;;;;;;;12.18;8.70;;;;;;;;;;5013405;28;20430;-76
2023/08/19 08:25:59;;;;;;;9.90;7.85;;;;;;;;;;5007837;28;20263;-82
2023/08/19 08:28:27;;;;;;;10.70;7.82;;;;;;;;;;5012760;28;20208;-82
2023/08/19 08:30:53;;;;;;;10.82;7.75;;;;;;;;;;5017739;28;20183;-82
2023/08/19 08:33:20;;;;;;;12.48;7.30;;;;;;;;;;5018434;28;20173;-82
2023/08/19 08:35:46;;;;;;;9.18;7.63;;;;;;;;;;4995711;28;20189;-82
2023/08/19 08:38:12;;;;;;;9.00;7.25;;;;;;;;;;4995164;28;20190;-82
2023/08/19 08:40:38;;;;;;;11.45;7.63;;;;;;;;;;4994255;28;20186;-83
2023/08/19 08:43:04;;;;;;;9.55;8.00;;;;;;;;;;4999954;28;20459;-75
2023/08/19 08:45:31;;;;;;;9.70;8.20;;;;;;;;;;5031504;28;20525;-76
2023/08/19 08:47:59;;;;;;;11.35;7.93;;;;;;;;;;5032493;28;20425;-76
2023/08/19 08:50:26;;;;;;;11.63;7.75;;;;;;;;;;5031995;28;20503;-76
2023/08/19 08:52:52;;;;;;;11.95;7.43;;;;;;;;;;5034122;28;20169;-77
2023/08/19 08:55:18;;;;;;;8.55;7.13;;;;;;;;;;5033507;28;20173;-78
2023/08/19 08:57:44;;;;;;;12.90;7.10;;;;;;;;;;5033850;28;20252;-78
2023/08/19 09:00:12;;;;;;;11.65;7.85;;;;;;;;;;5006552;28;20202;-78
2023/08/19 09:02:39;;;;;;;11.60;7.32;;;;;;;;;;5028842;28;20181;-78
2023/08/19 09:05:06;;;;;;;10.75;8.07;;;;;;;;;;5013801;28;20407;-78
2023/08/19 09:07:35;;;;;;;13.48;8.27;;;;;;;;;;5045904;28;20476;-78
2023/08/19 09:10:02;;;;;;;11.80;8.90;;;;;;;;;;5048562;28;20414;-78
2023/08/19 09:12:31;;;;;;;12.32;8.93;;;;;;;;;;5017332;28;20486;-78
2023/08/19 09:15:03;;;;;;;12.30;9.27;;;;;;;;;;5049642;28;20421;-77
2023/08/19 09:17:33;;;;;;;11.27;9.38;;;;;;;;;;5047590;28;20407;-76
2023/08/19 09:20:00;;;;;;;10.52;9.10;;;;;;;;;;4996432;28;20459;-76
2023/08/19 09:22:26;;;;;;;11.07;9.77;;;;;;;;;;4996341;28;20405;-76
2023/08/19 09:24:53;;;;;;;11.07;9.95;;;;;;;;;;4996282;28;20417;-77
2023/08/19 09:27:46;;;;;;;12.18;10.52;;;;;;;;;;5002348;28;20441;-76
2023/08/19 09:30:18;;;;;;;12.55;11.15;;;;;;;;;;5019535;28;20450;-76
2023/08/19 09:32:45;;;;;;;14.07;11.82;;;;;;;;;;5049451;28;20415;-77
2023/08/19 09:35:12;;;;;;;15.02;10.95;;;;;;;;;;5032904;28;20185;-77
2023/08/19 09:37:38;;;;;;;13.95;12.02;;;;;;;;;;5015536;28;20438;-78
2023/08/19 09:40:08;;;;;;;14.88;12.00;;;;;;;;;;5015627;28;20399;-78
2023/08/19 09:42:35;;;;;;;16.00;11.65;;;;;;;;;;5017792;28;20181;-78
2023/08/19 09:45:04;;;;;;;13.77;11.93;;;;;;;;;;5003130;28;20206;-78
2023/08/19 09:47:31;;;;;;;13.43;12.02;;;;;;;;;;5039767;28;20205;-78
2023/08/19 09:49:58;;;;;;;14.98;12.63;;;;;;;;;;5017455;28;20177;-78
2023/08/19 09:52:24;;;;;;;14.48;13.10;;;;;;;;;;5015740;28;20411;-78
2023/08/19 09:54:54;;;;;;;14.85;13.18;;;;;;;;;;4996786;28;20194;-78
2023/08/19 09:57:32;;;;;;;14.68;13.27;;;;;;;;;;4996368;28;20229;-78
2023/08/19 09:59:58;;;;;;;15.43;13.52;;;;;;;;;;4996934;28;20404;-78
2023/08/19 10:02:24;;;;;;;14.85;13.30;;;;;;;;;;4996405;28;20437;-78
2023/08/19 10:04:50;;;;;;;14.82;13.23;;;;;;;;;;5018415;28;20447;-82
2023/08/19 10:07:17;;;;;;;15.30;13.75;;;;;;;;;;5032440;28;20439;-82
2023/08/19 10:09:43;;;;;;;14.77;13.13;;;;;;;;;;5032274;28;20442;-82
2023/08/19 10:12:11;;;;;;;14.38;12.85;;;;;;;;;;5049131;28;20177;-83
2023/08/19 10:14:39;;;;;;;14.38;12.98;;;;;;;;;;5031897;28;20411;-82
2023/08/19 10:17:06;;;;;;;15.65;14.00;;;;;;;;;;5037965;28;20420;-82
2023/08/19 10:19:36;;;;;;;15.07;12.90;;;;;;;;;;5011388;28;20481;-82
2023/08/19 10:22:03;;;;;;;12.85;11.43;;;;;;;;;;4997478;28;20225;-79
2023/08/19 10:24:29;;;;;;;13.63;11.82;;;;;;;;;;5017567;28;20289;-79
2023/08/19 10:26:56;;;;;;;14.10;12.60;;;;;;;;;;5022208;28;20481;-79
2023/08/19 10:29:22;;;;;;;14.07;12.68;;;;;;;;;;5010898;28;20180;-79
2023/08/19 10:31:48;;;;;;;13.82;12.57;;;;;;;;;;5028205;28;20182;-79
2023/08/19 10:34:20;;;;;;;14.20;12.30;;;;;;;;;;4996943;28;20177;-79
2023/08/19 10:37:05;;;;;;;16.45;13.00;;;;;;;;;;5012185;28;20188;-80
2023/08/19 10:39:31;;;;;;;14.75;13.23;;;;;;;;;;5012625;28;20188;-79
2023/08/19 10:41:57;;;;;;;17.47;13.90;;;;;;;;;;5027724;28;20427;-78
2023/08/19 10:44:31;;;;;;;18.17;15.65;;;;;;;;;;5027047;28;20270;-78
2023/08/19 10:47:18;;;;;;;16.73;15.05;;;;;;;;;;4999946;28;20296;-78
2023/08/19 10:49:47;;;;;;;17.50;15.70;;;;;;;;;;5015855;28;20418;-78
2023/08/19 10:52:22;;;;;;;16.35;14.70;;;;;;;;;;5014390;28;20418;-78
2023/08/19 10:54:48;;;;;;;15.57;13.32;;;;;;;;;;5010689;28;20439;-82
2023/08/19 10:57:23;;;;;;;15.63;14.02;;;;;;;;;;4998934;28;20449;-86
2023/08/19 10:59:56;;;;;;;17.83;15.98;;;;;;;;;;5007919;28;20419;-85
2023/08/19 11:02:22;;;;;;;17.80;16.00;;;;;;;;;;5013979;28;20465;-86
2023/08/19 11:04:49;;;;;;;16.83;15.10;;;;;;;;;;4997532;28;20498;-85
2023/08/19 11:07:15;;;;;;;17.80;16.00;;;;;;;;;;5013423;28;20435;-85
2023/08/19 11:09:42;;;;;;;19.10;17.15;;;;;;;;;;5015585;28;20411;-86
2023/08/19 11:12:08;;;;;;;18.88;17.15;;;;;;;;;;5030162;28;20438;-79
2023/08/19 11:14:34;;;;;;;19.45;17.55;;;;;;;;;;5014713;28;20213;-79
2023/08/19 11:17:02;;;;;;;18.58;16.63;;;;;;;;;;4997933;28;20177;-79
2023/08/19 11:19:30;;;;;;;18.75;16.83;;;;;;;;;;5014251;28;20224;-79
2023/08/19 11:21:57;;;;;;;19.08;17.30;;;;;;;;;;5014670;28;20207;-79
2023/08/19 11:24:32;;;;;;;20.88;18.83;;;;;;;;;;5014758;28;20185;-79
2023/08/19 11:26:59;;;;;;;22.40;20.20;;;;;;;;;;5021078;28;20433;-85
2023/08/19 11:29:25;;;;;;;22.87;20.70;;;;;;;;;;5016945;28;20406;-79
2023/08/19 11:31:51;;;;;;;22.98;20.88;;;;;;;;;;5021261;28;20419;-79
2023/08/19 11:34:17;;;;;;;22.73;20.58;;;;;;;;;;5029667;28;20507;-79
2023/08/19 11:36:46;;;;;;;27.42;24.63;;;;;;;;;;5012968;28;20513;-79
2023/08/19 11:39:12;;;;;;;28.13;25.67;;;;;;;;;;5046155;28;20462;-79
2023/08/19 11:41:39;;;;;;;27.90;25.40;;;;;;;;;;5020658;28;20427;-79
2023/08/19 11:44:06;;;;;;;27.77;25.38;;;;;;;;;;5032991;28;20421;-78
2023/08/19 11:46:33;;;;;;;27.73;25.23;;;;;;;;;;5034088;28;20543;-82
2023/08/19 11:49:08;;;;;;;28.20;25.70;;;;;;;;;;5033641;28;20463;-83
2023/08/19 11:51:37;;;;;;;28.30;25.90;;;;;;;;;;5031713;28;20504;-82
2023/08/19 11:54:05;;;;;;;28.90;26.48;;;;;;;;;;5031630;28;20412;-83
2023/08/19 11:56:50;;;;;;;28.98;26.48;;;;;;;;;;5015354;28;20402;-82
2023/08/19 11:59:16;;;;;;;25.83;23.48;;;;;;;;;;5032345;28;20441;-82
2023/08/19 12:01:45;;;;;;;23.83;21.80;;;;;;;;;;5032829;28;20408;-77
2023/08/19 12:04:12;;;;;;;22.67;20.58;;;;;;;;;;5032370;28;20401;-78
2023/08/19 12:06:38;;;;;;;21.90;20.00;;;;;;;;;;5016086;28;20409;-78
2023/08/19 12:09:05;;;;;;;20.85;18.95;;;;;;;;;;5032219;28;20447;-78
2023/08/19 12:11:31;;;;;;;19.13;17.33;;;;;;;;;;5032226;28;20431;-78
2023/08/19 12:13:57;;;;;;;18.63;16.92;;;;;;;;;;5032317;28;20405;-78
2023/08/19 12:16:23;;;;;;;17.97;16.20;;;;;;;;;;5033197;28;20401;-78
2023/08/19 12:18:49;;;;;;;17.07;15.43;;;;;;;;;;5015561;28;20406;-78
2023/08/19 12:21:15;;;;;;;14.65;13.38;;;;;;;;;;5032242;28;20448;-78
2023/08/19 12:23:41;;;;;;;15.55;14.00;;;;;;;;;;5015919;28;20405;-79
2023/08/19 12:26:07;;;;;;;13.13;11.82;;;;;;;;;;5016624;28;20191;-78
2023/08/19 12:28:33;;;;;;;15.20;12.38;;;;;;;;;;5016340;28;20235;-83
2023/08/19 12:31:00;;;;;;;13.13;11.77;;;;;;;;;;5016627;28;20210;-83
2023/08/19 12:33:27;;;;;;;14.15;12.75;;;;;;;;;;5016789;28;20184;-82
2023/08/19 12:35:54;;;;;;;14.10;12.77;;;;;;;;;;5032992;28;20255;-78
2023/08/19 12:38:21;;;;;;;13.82;12.43;;;;;;;;;;5016508;28;20188;-78
2023/08/19 12:40:48;;;;;;;14.95;13.25;;;;;;;;;;5033866;28;20169;-78
2023/08/19 12:43:14;;;;;;;14.27;12.88;;;;;;;;;;5032696;28;20203;-78
2023/08/19 12:45:41;;;;;;;14.63;13.10;;;;;;;;;;5016331;28;20176;-78
2023/08/19 12:48:07;;;;;;;14.95;13.45;;;;;;;;;;5016282;28;20200;-79
2023/08/19 12:50:34;;;;;;;14.13;12.63;;;;;;;;;;5032516;28;20193;-78
2023/08/19 12:53:00;;;;;;;13.02;11.73;;;;;;;;;;5032628;28;20180;-84
2023/08/19 12:55:26;;;;;;;12.45;10.98;;;;;;;;;;5032791;28;20180;-85
2023/08/19 12:57:56;;;;;;;11.18;10.18;;;;;;;;;;5033391;28;20229;-84
2023/08/19 13:00:23;;;;;;;12.77;10.63;;;;;;;;;;5032376;28;20180;-85
2023/08/19 13:02:49;;;;;;;15.00;12.80;;;;;;;;;;5015991;28;20429;-85
2023/08/19 13:05:15;;;;;;;14.60;13.13;;;;;;;;;;5032787;28;20181;-82
2023/08/19 13:07:41;;;;;;;20.20;14.20;;;;;;;;;;5032738;28;20258;-79
2023/08/19 13:10:09;;;;;;;17.15;14.65;;;;;;;;;;5033617;28;20251;-79
2023/08/19 13:12:35;;;;;;;16.30;14.27;;;;;;;;;;5032454;28;20263;-79
2023/08/19 13:15:01;;;;;;;17.30;15.43;;;;;;;;;;5015676;28;20417;-79
2023/08/19 13:17:27;;;;;;;18.33;15.60;;;;;;;;;;5015620;28;20414;-78
2023/08/19 13:19:56;;;;;;;15.75;14.15;;;;;;;;;;5015997;28;20188;-79
2023/08/19 13:22:23;;;;;;;12.52;11.02;;;;;;;;;;5031761;28;20444;-79
2023/08/19 13:24:49;;;;;;;11.50;7.63;;;;;;;;;;5032489;28;20185;-85
2023/08/19 13:27:15;;;;;;;8.77;6.10;;;;;;;;;;5032345;28;20219;-85
2023/08/19 13:29:41;;;;;;;8.43;5.57;;;;;;;;;;5016166;28;20181;-85
2023/08/19 13:32:08;;;;;;;6.45;5.38;;;;;;;;;;5016115;28;20177;-85
2023/08/19 13:34:34;;;;;;;6.53;5.30;;;;;;;;;;5015867;28;20179;-83
2023/08/19 13:37:00;;;;;;;6.97;5.65;;;;;;;;;;5032582;28;20188;-85
2023/08/19 13:39:30;;;;;;;7.10;5.30;;;;;;;;;;5032522;28;20172;-85
2023/08/19 13:41:57;;;;;;;7.68;5.63;;;;;;;;;;5033424;28;20196;-79
2023/08/19 13:44:25;;;;;;;10.98;8.40;;;;;;;;;;5016137;28;20203;-82
2023/08/19 13:46:58;;;;;;;9.85;8.02;;;;;;;;;;5032429;28;20204;-82
2023/08/19 13:49:24;;;;;;;8.48;5.93;;;;;;;;;;5032364;28;20173;-82
2023/08/19 13:51:51;;;;;;;7.60;6.50;;;;;;;;;;5032519;28;20180;-82
2023/08/19 13:54:18;;;;;;;6.88;5.60;;;;;;;;;;5032696;28;20183;-82
2023/08/19 13:56:44;;;;;;;10.48;6.47;;;;;;;;;;5035591;28;20177;-82
2023/08/19 13:59:10;;;;;;;7.65;5.38;;;;;;;;;;5019639;28;20188;-79
2023/08/19 14:01:36;;;;;;;6.53;4.95;;;;;;;;;;5019345;28;20191;-79
2023/08/19 14:04:02;;;;;;;6.88;4.65;;;;;;;;;;5036711;28;20187;-78
2023/08/19 14:06:29;;;;;;;5.50;4.10;;;;;;;;;;5019168;28;20176;-79
2023/08/19 14:08:55;;;;;;;8.93;3.95;;;;;;;;;;5035419;28;20181;-79
2023/08/19 14:11:21;;;;;;;7.38;4.10;;;;;;;;;;5018838;28;20228;-79
2023/08/19 14:13:47;;;;;;;9.73;5.10;;;;;;;;;;5035281;28;20176;-79
2023/08/19 14:16:13;;;;;;;7.38;4.60;;;;;;;;;;5035514;28;20173;-83
2023/08/19 14:18:39;;;;;;;7.53;4.43;;;;;;;;;;5035401;28;20200;-82
2023/08/19 14:21:06;;;;;;;7.50;5.35;;;;;;;;;;5035408;28;20188;-82